Time;durP1;ratioP1;P1;durP2;ratioP2;P2;SDS_P1;SDS_P2;PMS_P1;PMS_P2;Temp;Humidity;BMP_temperature;BMP_pressure;BME280_temperature;BME280_humidity;BME280_pressure;Samples;Min_cycle;Max_cycle;Signal;HPM_P1;HPM_P2
2023/09/20 00:01:52;;;;;;;;;;;;;;;-140.72;100.00;52786.56;5077943;28;19920;-68
2023/09/20 00:04:18;;;;;;;;;;;;;;;-140.72;100.00;52756.13;5081259;28;20291;-68
2023/09/20 00:06:43;;;;;;;;;;;;;;;-140.72;100.00;52739.88;5074183;28;20015;-68
2023/09/20 00:09:08;;;;;;;;;;;;;;;-140.72;100.00;52731.75;5075062;28;19920;-68
2023/09/20 00:11:35;;;;;;;;;;;;;;;-140.72;100.00;52762.22;5077884;28;20398;-68
2023/09/20 00:14:00;;;;;;;;;;;;;;;-140.72;100.00;52731.75;5075760;28;19969;-68
2023/09/20 00:16:25;;;;;;;;;;;;;;;-140.72;100.00;52752.06;5066984;28;20011;-68
2023/09/20 00:18:51;;;;;;;;;;;;;;;-140.72;100.00;52794.69;5075334;28;19920;-68
2023/09/20 00:21:16;;;;;;;;;;;;;;;-140.72;100.00;52697.28;5072988;28;19928;-68
2023/09/20 00:23:42;;;;;;;;;;;;;;;-140.72;100.00;52713.50;5073162;28;19928;-68
2023/09/20 00:26:08;;;;;;;;;;;;;;;-140.72;100.00;52770.31;5063443;28;19956;-68
2023/09/20 00:28:33;;;;;;;;;;;;;;;-140.72;100.00;52733.78;5081752;28;19959;-68
2023/09/20 00:30:58;;;;;;;;;;;;;;;-140.72;100.00;52764.25;5072005;28;19927;-68
2023/09/20 00:33:24;;;;;;;;;;;;;;;-140.72;100.00;52737.84;5073240;28;19921;-69
2023/09/20 00:35:49;;;;;;;;;;;;;;;-140.72;100.00;52750.03;5080730;28;19963;-69
2023/09/20 00:38:16;;;;;;;;;;;;;;;-140.72;100.00;52756.13;5078499;28;20374;-68
2023/09/20 00:40:43;;;;;;;;;;;;;;;-140.72;100.00;52709.44;5067180;28;19926;-68
2023/09/20 00:43:10;;;;;;;;;;;;;;;-140.72;100.00;52748.00;5071830;28;19920;-68
2023/09/20 00:45:40;;;;;;;;;;;;;;;-140.72;100.00;52733.78;5083949;28;19924;-68
2023/09/20 00:48:07;;;;;;;;;;;;;;;-140.72;100.00;52752.06;5075064;28;19959;-68
2023/09/20 00:50:33;;;;;;;;;;;;;;;-140.72;100.00;52737.84;5066001;28;19996;-68
2023/09/20 00:52:59;;;;;;;;;;;;;;;-140.72;100.00;52754.09;5070126;28;19967;-68
2023/09/20 00:55:25;;;;;;;;;;;;;;;-140.72;100.00;52731.75;5069817;28;19948;-68
2023/09/20 00:57:53;;;;;;;;;;;;;;;-140.72;100.00;52717.56;5081094;28;20409;-68
2023/09/20 01:00:21;;;;;;;;;;;;;;;-140.72;100.00;52735.81;5076671;28;19927;-69
2023/09/20 01:03:05;;;;;;;;;;;;;;;-140.72;100.00;52748.00;5069883;28;20007;-69
2023/09/20 01:05:36;;;;;;;;;;;;;;;-140.72;100.00;52715.53;5068338;28;19927;-68
2023/09/20 01:08:01;;;;;;;;;;;;;;;-140.72;100.00;52731.75;5068493;28;20031;-68
2023/09/20 01:10:27;;;;;;;;;;;;;;;-140.72;100.00;52754.09;5087566;28;19978;-68
2023/09/20 01:12:54;;;;;;;;;;;;;;;-140.72;100.00;52760.19;5072298;28;19920;-68
2023/09/20 01:15:21;;;;;;;;;;;;;;;-140.72;100.00;52768.28;5061659;28;19977;-68
2023/09/20 01:17:46;;;;;;;;;;;;;;;-140.72;100.00;52788.59;5066476;28;19921;-68
2023/09/20 01:20:18;;;;;;;;;;;;;;;-140.72;100.00;52788.59;5055321;28;19929;-68
2023/09/20 01:22:43;;;;;;;;;;;;;;;-140.72;100.00;52707.41;5061265;28;19991;-68
2023/09/20 01:25:11;;;;;;;;;;;;;;;-140.72;100.00;52727.72;5069885;28;19932;-69
2023/09/20 01:27:38;;;;;;;;;;;;;;;-140.72;100.00;52752.06;5065906;28;19925;-68
2023/09/20 01:30:04;;;;;;;;;;;;;;;-140.72;100.00;52750.03;5072465;28;19974;-68
2023/09/20 01:32:29;;;;;;;;;;;;;;;-140.72;100.00;52731.75;5070396;28;19958;-69
2023/09/20 01:34:55;;;;;;;;;;;;;;;-140.72;100.00;52713.50;5070878;28;19986;-69
2023/09/20 01:37:21;;;;;;;;;;;;;;;-140.72;100.00;52689.16;5066376;28;19981;-69
2023/09/20 01:39:46;;;;;;;;;;;;;;;-140.72;100.00;52723.66;5071481;28;19927;-68
2023/09/20 01:42:12;;;;;;;;;;;;;;;-140.72;100.00;52731.75;5066546;28;19921;-68
2023/09/20 01:44:37;;;;;;;;;;;;;;;-140.72;100.00;52743.94;5067470;28;19935;-68
2023/09/20 01:47:03;;;;;;;;;;;;;;;-140.72;100.00;52764.25;5083206;28;19966;-68
2023/09/20 01:49:28;;;;;;;;;;;;;;;-140.72;100.00;52715.53;5060854;28;20497;-68
2023/09/20 01:51:54;;;;;;;;;;;;;;;-140.72;100.00;52739.88;5079062;28;20377;-69
2023/09/20 01:54:20;;;;;;;;;;;;;;;-140.72;100.00;52707.41;5068960;28;20433;-68
2023/09/20 01:56:45;;;;;;;;;;;;;;;-140.72;100.00;52733.78;5072520;28;19962;-68
2023/09/20 01:59:10;;;;;;;;;;;;;;;-140.72;100.00;52731.75;5064892;28;20371;-68
2023/09/20 02:01:37;;;;;;;;;;;;;;;-140.72;100.00;52711.47;5064969;28;19920;-69
2023/09/20 02:04:03;;;;;;;;;;;;;;;-140.72;100.00;52723.66;5070403;28;20256;-69
2023/09/20 02:06:28;;;;;;;;;;;;;;;-140.72;100.00;52715.53;5056115;28;20026;-68
2023/09/20 02:08:54;;;;;;;;;;;;;;;-140.72;100.00;52707.41;5069146;28;20411;-68
2023/09/20 02:11:19;;;;;;;;;;;;;;;-140.72;100.00;52748.00;5076383;28;19939;-68
2023/09/20 02:13:44;;;;;;;;;;;;;;;-140.72;100.00;52735.81;5075601;28;19924;-68
2023/09/20 02:16:11;;;;;;;;;;;;;;;-140.72;100.00;52739.88;5072138;28;19931;-68
2023/09/20 02:18:36;;;;;;;;;;;;;;;-140.72;100.00;52735.81;5059650;28;19974;-68
2023/09/20 02:21:02;;;;;;;;;;;;;;;-140.72;100.00;52752.06;5071232;28;19928;-68
2023/09/20 02:23:27;;;;;;;;;;;;;;;-140.72;100.00;52729.75;5070107;28;19920;-70
2023/09/20 02:25:54;;;;;;;;;;;;;;;-140.72;100.00;52727.72;5080171;28;19991;-69
2023/09/20 02:28:20;;;;;;;;;;;;;;;-140.72;100.00;52735.81;5089884;28;20437;-68
2023/09/20 02:30:45;;;;;;;;;;;;;;;-140.72;100.00;52725.69;5077903;28;19920;-69
2023/09/20 02:33:14;;;;;;;;;;;;;;;-140.72;100.00;52743.94;5071947;28;19927;-68
2023/09/20 02:35:39;;;;;;;;;;;;;;;-140.72;100.00;52739.88;5076134;28;19983;-68
2023/09/20 02:38:05;;;;;;;;;;;;;;;-140.72;100.00;52776.41;5074667;28;19973;-68
2023/09/20 02:40:31;;;;;;;;;;;;;;;-140.72;100.00;52715.53;5063820;28;20291;-68
2023/09/20 02:43:00;;;;;;;;;;;;;;;-140.72;100.00;52754.09;5075967;28;19927;-68
2023/09/20 02:45:27;;;;;;;;;;;;;;;-140.72;100.00;52733.78;5080639;28;19920;-68
2023/09/20 02:47:52;;;;;;;;;;;;;;;-140.72;100.00;52741.91;5075259;28;19920;-68
2023/09/20 02:50:18;;;;;;;;;;;;;;;-140.72;100.00;52689.16;5078680;28;19999;-68
2023/09/20 02:52:47;;;;;;;;;;;;;;;-140.72;100.00;52735.81;5084730;28;20362;-68
2023/09/20 02:55:13;;;;;;;;;;;;;;;-140.72;100.00;52750.03;5079973;28;19920;-68
2023/09/20 02:57:42;;;;;;;;;;;;;;;-140.72;100.00;52715.53;5079222;28;20023;-69
2023/09/20 03:00:16;;;;;;;;;;;;;;;-140.72;100.00;52711.47;5091961;28;19920;-69
2023/09/20 03:02:45;;;;;;;;;;;;;;;-140.72;100.00;52760.19;5083149;28;19921;-68
2023/09/20 03:05:15;;;;;;;;;;;;;;;-140.72;100.00;52721.63;5071409;28;20389;-68
2023/09/20 03:07:42;;;;;;;;;;;;;;;-140.72;100.00;52750.03;5074466;28;19925;-68
2023/09/20 03:10:12;;;;;;;;;;;;;;;-140.72;100.00;52750.03;5075464;28;20393;-69
2023/09/20 03:12:38;;;;;;;;;;;;;;;-140.72;100.00;52707.41;5083368;28;19963;-69
2023/09/20 03:15:04;;;;;;;;;;;;;;;-140.72;100.00;52709.44;5060717;28;19927;-68
2023/09/20 03:17:31;;;;;;;;;;;;;;;-140.72;100.00;52687.13;5072860;28;19931;-69
2023/09/20 03:19:56;;;;;;;;;;;;;;;-140.72;100.00;52719.59;5066353;28;20027;-69
2023/09/20 03:22:22;;;;;;;;;;;;;;;-140.72;100.00;52768.28;5065073;28;20668;-69
2023/09/20 03:24:47;;;;;;;;;;;;;;;-140.72;100.00;52713.50;5074216;28;19936;-68
2023/09/20 03:27:15;;;;;;;;;;;;;;;-140.72;100.00;52733.78;5075016;28;19921;-68
2023/09/20 03:29:40;;;;;;;;;;;;;;;-140.72;100.00;52727.72;5073768;28;19924;-69
2023/09/20 03:32:05;;;;;;;;;;;;;;;-140.72;100.00;52754.09;5084525;28;20282;-68
2023/09/20 03:34:30;;;;;;;;;;;;;;;-140.72;100.00;52735.81;5067159;28;19921;-68
2023/09/20 03:36:57;;;;;;;;;;;;;;;-140.72;100.00;52743.94;5085287;28;19920;-68
2023/09/20 03:39:24;;;;;;;;;;;;;;;-140.72;100.00;52774.38;5074206;28;20252;-68
2023/09/20 03:41:51;;;;;;;;;;;;;;;-140.72;100.00;52743.94;5085470;28;19924;-69
2023/09/20 03:44:16;;;;;;;;;;;;;;;-140.72;100.00;52748.00;5074452;28;19967;-68
2023/09/20 03:46:41;;;;;;;;;;;;;;;-140.72;100.00;52743.94;5069326;28;20618;-68
2023/09/20 03:49:06;;;;;;;;;;;;;;;-140.72;100.00;52739.88;5078182;28;19920;-69
2023/09/20 03:51:32;;;;;;;;;;;;;;;-140.72;100.00;52735.81;5070705;28;19981;-71
2023/09/20 03:53:57;;;;;;;;;;;;;;;-140.72;100.00;52737.84;5084474;28;19926;-72
2023/09/20 03:56:22;;;;;;;;;;;;;;;-140.72;100.00;52750.03;5073225;28;19973;-72
2023/09/20 03:58:47;;;;;;;;;;;;;;;-140.72;100.00;52758.16;5083778;28;20018;-71
2023/09/20 04:01:13;;;;;;;;;;;;;;;-140.72;100.00;52743.94;5072575;28;19920;-71
2023/09/20 04:03:40;;;;;;;;;;;;;;;-140.72;100.00;52729.75;5073906;28;19944;-71
2023/09/20 04:06:05;;;;;;;;;;;;;;;-140.72;100.00;52739.88;5073753;28;19920;-72
2023/09/20 04:08:31;;;;;;;;;;;;;;;-140.72;100.00;52748.00;5083880;28;20406;-71
2023/09/20 04:10:59;;;;;;;;;;;;;;;-140.72;100.00;52756.13;5070481;28;19921;-71
2023/09/20 04:13:24;;;;;;;;;;;;;;;-140.72;100.00;52727.72;5077960;28;20293;-71
2023/09/20 04:15:49;;;;;;;;;;;;;;;-140.72;100.00;52735.81;5072606;28;19928;-72
2023/09/20 04:18:15;;;;;;;;;;;;;;;-140.72;100.00;52748.00;5076167;28;20282;-71
2023/09/20 04:20:41;;;;;;;;;;;;;;;-140.72;100.00;52768.28;5073451;28;19920;-70
2023/09/20 04:23:06;;;;;;;;;;;;;;;-140.72;100.00;52752.06;5075676;28;19923;-70
2023/09/20 04:25:31;;;;;;;;;;;;;;;-140.72;100.00;52739.88;5063481;28;20015;-71
2023/09/20 04:27:57;;;;;;;;;;;;;;;-140.72;100.00;52743.94;5064493;28;19966;-70
2023/09/20 04:30:22;;;;;;;;;;;;;;;-140.72;100.00;52776.41;5072813;28;19920;-71
2023/09/20 04:32:48;;;;;;;;;;;;;;;-140.72;100.00;52743.94;5061554;28;19925;-70
2023/09/20 04:35:13;;;;;;;;;;;;;;;-140.72;100.00;52737.84;5070602;28;20019;-71
2023/09/20 04:37:38;;;;;;;;;;;;;;;-140.72;100.00;52731.75;5069782;28;19920;-70
2023/09/20 04:40:05;;;;;;;;;;;;;;;-140.72;100.00;52770.31;5065192;28;20357;-70
2023/09/20 04:42:33;;;;;;;;;;;;;;;-140.72;100.00;52772.34;5081275;28;19920;-70
2023/09/20 04:44:58;;;;;;;;;;;;;;;-140.72;100.00;52727.72;5069564;28;19920;-70
2023/09/20 04:47:23;;;;;;;;;;;;;;;-140.72;100.00;52788.59;5079916;28;19927;-70
2023/09/20 04:49:49;;;;;;;;;;;;;;;-140.72;100.00;52743.94;5067963;28;19921;-71
2023/09/20 04:52:15;;;;;;;;;;;;;;;-140.72;100.00;52798.72;5068205;28;19920;-71
2023/09/20 04:54:43;;;;;;;;;;;;;;;-140.72;100.00;52764.25;5071623;28;19929;-71
2023/09/20 04:57:08;;;;;;;;;;;;;;;-140.72;100.00;52780.47;5064041;28;19964;-71
2023/09/20 04:59:33;;;;;;;;;;;;;;;-140.72;100.00;52739.88;5064976;28;19998;-71
2023/09/20 05:02:03;;;;;;;;;;;;;;;-140.72;100.00;52768.28;5072629;28;19973;-71
2023/09/20 05:04:29;;;;;;;;;;;;;;;-140.72;100.00;52768.28;5066315;28;19928;-71
2023/09/20 05:06:54;;;;;;;;;;;;;;;-140.72;100.00;52737.84;5076305;28;19999;-71
2023/09/20 05:09:37;;;;;;;;;;;;;;;-140.72;100.00;52760.19;5063631;28;19921;-71
2023/09/20 05:12:04;;;;;;;;;;;;;;;-140.72;100.00;52739.88;5082593;28;19928;-71
2023/09/20 05:14:30;;;;;;;;;;;;;;;-140.72;100.00;52723.66;5070827;28;19970;-71
2023/09/20 05:16:56;;;;;;;;;;;;;;;-140.72;100.00;52764.25;5083456;28;20302;-71
2023/09/20 05:19:23;;;;;;;;;;;;;;;-140.72;100.00;52804.81;5069219;28;20019;-71
2023/09/20 05:21:48;;;;;;;;;;;;;;;-140.72;100.00;52735.81;5064482;28;20002;-71
2023/09/20 05:24:13;;;;;;;;;;;;;;;-140.72;100.00;52780.47;5082194;28;20023;-71
2023/09/20 05:26:39;;;;;;;;;;;;;;;-140.72;100.00;52756.13;5062659;28;19932;-71
2023/09/20 05:29:04;;;;;;;;;;;;;;;-140.72;100.00;52754.09;5065981;28;20436;-71
2023/09/20 05:31:30;;;;;;;;;;;;;;;-140.72;100.00;52770.31;5070179;28;19928;-70
2023/09/20 05:33:55;;;;;;;;;;;;;;;-140.72;100.00;52792.66;5063941;28;19920;-71
2023/09/20 05:36:26;;;;;;;;;;;;;;;-140.72;100.00;52778.44;5071376;28;20038;-71
2023/09/20 05:38:52;;;;;;;;;;;;;;;-140.72;100.00;52772.34;5059533;28;19943;-72
2023/09/20 05:41:18;;;;;;;;;;;;;;;-140.72;100.00;52780.47;5081746;28;19917;-72
2023/09/20 05:43:44;;;;;;;;;;;;;;;-140.72;100.00;52764.25;5070581;28;19920;-72
2023/09/20 05:46:10;;;;;;;;;;;;;;;-140.72;100.00;52772.34;5072396;28;19931;-72
2023/09/20 05:48:36;;;;;;;;;;;;;;;-140.72;100.00;52756.13;5069345;28;19917;-71
2023/09/20 05:51:01;;;;;;;;;;;;;;;-140.72;100.00;52707.41;5058922;28;19917;-72
2023/09/20 05:53:26;;;;;;;;;;;;;;;-140.72;100.00;52758.16;5072913;28;19920;-71
2023/09/20 05:55:51;;;;;;;;;;;;;;;-140.72;100.00;52762.22;5080476;28;19956;-72
2023/09/20 05:58:17;;;;;;;;;;;;;;;-140.72;100.00;52725.69;5065039;28;19917;-71
2023/09/20 06:00:42;;;;;;;;;;;;;;;-140.72;100.00;52768.28;5068133;28;19925;-71
2023/09/20 06:03:07;;;;;;;;;;;;;;;-140.72;100.00;52772.34;5061135;28;20022;-71
2023/09/20 06:05:35;;;;;;;;;;;;;;;-140.72;100.00;52756.13;5061895;28;19956;-71
2023/09/20 06:08:01;;;;;;;;;;;;;;;-140.72;100.00;52764.25;5081584;28;19928;-71
2023/09/20 06:10:26;;;;;;;;;;;;;;;-140.72;100.00;52735.81;5063460;28;19920;-73
2023/09/20 06:13:09;;;;;;;;;;;;;;;-140.72;100.00;52768.28;5072031;28;19924;-71
2023/09/20 06:15:35;;;;;;;;;;;;;;;-140.72;100.00;52770.31;5067526;28;20000;-69
2023/09/20 06:18:00;;;;;;;;;;;;;;;-140.72;100.00;52752.06;5080230;28;19948;-69
2023/09/20 06:20:25;;;;;;;;;;;;;;;-140.72;100.00;52745.97;5082646;28;20298;-69
2023/09/20 06:22:52;;;;;;;;;;;;;;;-140.72;100.00;52778.44;5074018;28;20279;-69
2023/09/20 06:25:21;;;;;;;;;;;;;;;-140.72;100.00;52758.16;5075134;28;19973;-69
2023/09/20 06:27:50;;;;;;;;;;;;;;;-140.72;100.00;52758.16;5073274;28;19928;-69
2023/09/20 06:30:17;;;;;;;;;;;;;;;-140.72;100.00;52703.34;5071703;28;19970;-69
2023/09/20 06:32:44;;;;;;;;;;;;;;;-140.72;100.00;52727.72;5076811;28;19916;-69
2023/09/20 06:35:10;;;;;;;;;;;;;;;-140.72;100.00;52760.19;5080674;28;19920;-69
2023/09/20 06:37:35;;;;;;;;;;;;;;;-140.72;100.00;52745.97;5089724;28;20386;-69
2023/09/20 06:40:02;;;;;;;;;;;;;;;-140.72;100.00;52733.78;5078942;28;20054;-69
2023/09/20 06:42:30;;;;;;;;;;;;;;;-140.72;100.00;52735.81;5078939;28;20271;-69
2023/09/20 06:44:58;;;;;;;;;;;;;;;-140.72;100.00;52748.00;5078857;28;19956;-70
2023/09/20 06:47:24;;;;;;;;;;;;;;;-140.72;100.00;52739.88;5070148;28;19920;-69
2023/09/20 06:49:49;;;;;;;;;;;;;;;-140.72;100.00;52707.41;5068347;28;20267;-70
2023/09/20 06:52:14;;;;;;;;;;;;;;;-140.72;100.00;52750.03;5077657;28;19920;-73
2023/09/20 06:54:39;;;;;;;;;;;;;;;-140.72;100.00;52735.81;5074747;28;19924;-73
2023/09/20 06:57:05;;;;;;;;;;;;;;;-140.72;100.00;52697.28;5082463;28;19921;-73
2023/09/20 06:59:34;;;;;;;;;;;;;;;-140.72;100.00;52760.19;5071878;28;19925;-74
2023/09/20 07:02:01;;;;;;;;;;;;;;;-140.72;100.00;52758.16;5068655;28;21322;-73
2023/09/20 07:04:27;;;;;;;;;;;;;;;-140.72;100.00;52764.25;5069352;28;19924;-73
2023/09/20 07:06:55;;;;;;;;;;;;;;;-140.72;100.00;52713.50;5068446;28;20031;-73
2023/09/20 07:09:21;;;;;;;;;;;;;;;-140.72;100.00;52737.84;5070970;28;19924;-73
2023/09/20 07:11:47;;;;;;;;;;;;;;;-140.72;100.00;52731.75;5072298;28;19925;-73
2023/09/20 07:14:14;;;;;;;;;;;;;;;-140.72;100.00;52760.19;5069784;28;19931;-73
2023/09/20 07:16:40;;;;;;;;;;;;;;;-140.72;100.00;52743.94;5070048;28;20069;-73
2023/09/20 07:19:05;;;;;;;;;;;;;;;-140.72;100.00;52711.47;5072331;28;20373;-73
2023/09/20 07:21:37;;;;;;;;;;;;;;;-140.72;100.00;52743.94;5072597;28;19921;-73
2023/09/20 07:24:03;;;;;;;;;;;;;;;-140.72;100.00;52735.81;5072514;28;19930;-73
2023/09/20 07:26:29;;;;;;;;;;;;;;;-140.72;100.00;52743.94;5068403;28;19921;-74
2023/09/20 07:28:54;;;;;;;;;;;;;;;-140.72;100.00;52721.63;5068929;28;19924;-73
2023/09/20 07:31:21;;;;;;;;;;;;;;;-140.72;100.00;52717.56;5072650;28;19921;-73
2023/09/20 07:33:50;;;;;;;;;;;;;;;-140.72;100.00;52703.34;5069582;28;19967;-74
2023/09/20 07:36:15;;;;;;;;;;;;;;;-140.72;100.00;52723.66;5084579;28;19960;-75
2023/09/20 07:38:40;;;;;;;;;;;;;;;-140.72;100.00;52719.59;5070455;28;21453;-74
2023/09/20 07:41:09;;;;;;;;;;;;;;;-140.72;100.00;52727.72;5074039;28;19920;-74
2023/09/20 07:43:37;;;;;;;;;;;;;;;-140.72;100.00;52719.59;5068589;28;19973;-74
2023/09/20 07:46:04;;;;;;;;;;;;;;;-140.72;100.00;52735.81;5074571;28;19920;-73
2023/09/20 07:48:30;;;;;;;;;;;;;;;-140.72;100.00;52756.13;5071824;28;19920;-73
2023/09/20 07:50:55;;;;;;;;;;;;;;;-140.72;100.00;52713.50;5069290;28;19970;-73
2023/09/20 07:53:21;;;;;;;;;;;;;;;-140.72;100.00;52760.19;5073975;28;19986;-73
2023/09/20 07:55:56;;;;;;;;;;;;;;;-140.72;100.00;52729.75;5070026;28;19921;-73
2023/09/20 07:58:22;;;;;;;;;;;;;;;-140.72;100.00;52711.47;5068467;28;19994;-73
2023/09/20 08:00:49;;;;;;;;;;;;;;;-140.72;100.00;52707.41;5069327;28;20337;-76
2023/09/20 08:03:14;;;;;;;;;;;;;;;-140.72;100.00;52717.56;5069913;28;19920;-74
2023/09/20 08:05:44;;;;;;;;;;;;;;;-140.72;100.00;52743.94;5073547;28;19925;-74
2023/09/20 08:08:10;;;;;;;;;;;;;;;-140.72;100.00;52743.94;5072941;28;19921;-73
2023/09/20 08:10:36;;;;;;;;;;;;;;;-140.72;100.00;52725.69;5070723;28;20401;-73
2023/09/20 08:13:03;;;;;;;;;;;;;;;-140.72;100.00;52748.00;5071974;28;19935;-74
2023/09/20 08:15:29;;;;;;;;;;;;;;;-140.72;100.00;52743.94;5076571;28;19924;-73
2023/09/20 08:20:46;;;;;;;;;;;;;;;-140.72;100.00;52741.91;5070597;28;19931;-73
2023/09/20 09:01:37;;;;;;;;;;;;;;;-140.72;100.00;52687.13;5069116;28;19966;-74
2023/09/20 09:04:05;;;;;;;;;;;;;;;-140.72;100.00;52723.66;5083130;28;19967;-74
2023/09/20 09:06:30;;;;;;;;;;;;;;;-140.72;100.00;52709.44;5070593;28;19924;-74
2023/09/20 09:08:56;;;;;;;;;;;;;;;-140.72;100.00;52703.34;5079097;28;19931;-74
2023/09/20 09:11:23;;;;;;;;;;;;;;;-140.72;100.00;52713.50;5072644;28;19969;-74
2023/09/20 09:13:49;;;;;;;;;;;;;;;-140.72;100.00;52697.28;5071993;28;20423;-73
2023/09/20 09:16:18;;;;;;;;;;;;;;;-140.72;100.00;52723.66;5077091;28;20059;-74
2023/09/20 09:18:44;;;;;;;;;;;;;;;-140.72;100.00;52679.00;5070871;28;19921;-74
2023/09/20 09:21:11;;;;;;;;;;;;;;;-140.72;100.00;52717.56;5067657;28;19931;-74
2023/09/20 09:23:38;;;;;;;;;;;;;;;-140.72;100.00;52717.56;5067739;28;19998;-79
2023/09/20 09:26:04;;;;;;;;;;;;;;;-140.72;100.00;52709.44;5074314;28;20257;-74
2023/09/20 09:28:29;;;;;;;;;;;;;;;-140.72;100.00;52721.63;5072834;28;19940;-73
2023/09/20 09:30:55;;;;;;;;;;;;;;;-140.72;100.00;52721.63;5066366;28;19924;-74
2023/09/20 09:33:20;;;;;;;;;;;;;;;-140.72;100.00;52681.03;5083123;28;20286;-74
2023/09/20 09:35:47;;;;;;;;;;;;;;;-140.72;100.00;52709.44;5073927;28;20452;-74
2023/09/20 09:38:19;;;;;;;;;;;;;;;-140.72;100.00;52674.94;5062167;28;19928;-74
2023/09/20 09:40:52;;;;;;;;;;;;;;;-140.72;100.00;52707.41;5076876;28;19920;-74
2023/09/20 09:43:17;;;;;;;;;;;;;;;-140.72;100.00;52691.19;5064264;28;19920;-74
2023/09/20 09:45:44;;;;;;;;;;;;;;;-140.72;100.00;52697.28;5075744;28;19964;-70
2023/09/20 09:48:10;;;;;;;;;;;;;;;-140.72;100.00;52715.53;5078417;28;20389;-70
2023/09/20 09:50:38;;;;;;;;;;;;;;;-140.72;100.00;52695.25;5071409;28;19927;-70
2023/09/20 09:53:05;;;;;;;;;;;;;;;-140.72;100.00;52674.94;5067295;28;19928;-70
2023/09/20 09:55:30;;;;;;;;;;;;;;;-140.72;100.00;52689.16;5080945;28;19927;-69
2023/09/20 09:57:55;;;;;;;;;;;;;;;-140.72;100.00;52685.09;5076857;28;20294;-70
2023/09/20 10:00:21;;;;;;;;;;;;;;;-140.72;100.00;52689.16;5079461;28;19924;-70
2023/09/20 10:02:47;;;;;;;;;;;;;;;-140.72;100.00;52652.63;5068125;28;19958;-70
2023/09/20 10:05:12;;;;;;;;;;;;;;;-140.72;100.00;52605.94;5069078;28;20610;-71
2023/09/20 10:07:40;;;;;;;;;;;;;;;-140.72;100.00;52685.09;5064707;28;19916;-74
2023/09/20 10:10:12;;;;;;;;;;;;;;;-140.72;100.00;52713.50;5073448;28;20289;-70
2023/09/20 10:12:38;;;;;;;;;;;;;;;-140.72;100.00;52685.09;5068025;28;19951;-69
2023/09/20 10:15:24;;;;;;;;;;;;;;;-140.72;100.00;52666.84;5079333;28;19942;-69
2023/09/20 10:17:54;;;;;;;;;;;;;;;-140.72;100.00;52654.66;5082161;28;19935;-69
2023/09/20 10:20:20;;;;;;;;;;;;;;;-140.72;100.00;52638.41;5065626;28;19924;-69
2023/09/20 10:22:48;;;;;;;;;;;;;;;-140.72;100.00;52666.84;5070279;28;19928;-69
2023/09/20 10:25:31;;;;;;;;;;;;;;;-140.72;100.00;52648.56;5071050;28;19917;-69
2023/09/20 10:27:56;;;;;;;;;;;;;;;-140.72;100.00;52683.06;5060299;28;19927;-69
2023/09/20 10:30:21;;;;;;;;;;;;;;;-140.72;100.00;52648.56;5061818;28;19921;-69
2023/09/20 10:32:54;;;;;;;;;;;;;;;-140.72;100.00;52634.38;5069937;28;19921;-70
2023/09/20 10:35:19;;;;;;;;;;;;;;;-140.72;100.00;52674.94;5084185;28;19927;-71
2023/09/20 10:38:20;;;;;;;;;;;;;;;-140.72;100.00;52687.13;5072902;28;19920;-69
2023/09/20 10:40:45;;;;;;;;;;;;;;;-140.72;100.00;52624.22;5090110;28;20286;-69
2023/09/20 10:43:11;;;;;;;;;;;;;;;-140.72;100.00;52687.13;5072959;28;19920;-69
2023/09/20 10:45:36;;;;;;;;;;;;;;;-140.72;100.00;52636.38;5064569;28;19970;-69
2023/09/20 10:48:05;;;;;;;;;;;;;;;-140.72;100.00;52630.31;5074503;28;19924;-69
2023/09/20 10:50:50;;;;;;;;;;;;;;;-140.72;100.00;52640.44;5066051;28;19946;-69
2023/09/20 10:53:18;;;;;;;;;;;;;;;-140.72;100.00;52610.00;5070585;28;19966;-70
2023/09/20 10:55:44;;;;;;;;;;;;;;;-140.72;100.00;52575.50;5071370;28;20035;-69
2023/09/20 10:58:09;;;;;;;;;;;;;;;-140.72;100.00;52601.91;5060707;28;19944;-76
2023/09/20 11:00:35;;;;;;;;;;;;;;;-140.72;100.00;52646.53;5069924;28;19932;-71
2023/09/20 11:03:07;;;;;;;;;;;;;;;-140.72;100.00;52581.59;5059460;28;19927;-70
2023/09/20 11:05:32;;;;;;;;;;;;;;;-140.72;100.00;52551.16;5070018;28;19959;-70
2023/09/20 11:08:03;;;;;;;;;;;;;;;-140.72;100.00;52510.59;5067071;28;19928;-70
2023/09/20 11:10:29;;;;;;;;;;;;;;;-140.72;100.00;52384.78;5070393;28;19927;-70
2023/09/20 11:12:55;;;;;;;;;;;;;;;-140.72;100.00;52445.66;5064869;28;19928;-70
2023/09/20 11:15:20;;;;;;;;;;;;;;;-140.72;100.00;52439.56;5070604;28;19955;-70
2023/09/20 11:17:46;;;;;;;;;;;;;;;-140.72;100.00;52472.03;5069848;28;19977;-71
2023/09/20 11:20:12;;;;;;;;;;;;;;;-140.72;100.00;52476.09;5071120;28;20073;-70
2023/09/20 11:22:37;;;;;;;;;;;;;;;-140.72;100.00;52506.53;5071394;28;19925;-71
2023/09/20 11:25:04;;;;;;;;;;;;;;;-140.72;100.00;52516.66;5061405;28;20489;-71
2023/09/20 11:27:30;;;;;;;;;;;;;;;-140.72;100.00;52569.44;5070660;28;19930;-72
2023/09/20 11:30:05;;;;;;;;;;;;;;;-140.72;100.00;52567.41;5068453;28;19985;-71
2023/09/20 11:32:30;;;;;;;;;;;;;;;-140.72;100.00;52561.31;5070139;28;19921;-71
2023/09/20 11:34:56;;;;;;;;;;;;;;;-140.72;100.00;52565.38;5072939;28;19943;-71
2023/09/20 11:37:21;;;;;;;;;;;;;;;-140.72;100.00;52545.06;5070005;28;19943;-71
2023/09/20 11:39:47;;;;;;;;;;;;;;;-140.72;100.00;52591.75;5070992;28;20500;-71
2023/09/20 11:42:32;;;;;;;;;;;;;;;-140.72;100.00;52545.06;5069368;28;19974;-72
2023/09/20 11:44:58;;;;;;;;;;;;;;;-140.72;100.00;52480.16;5064633;28;19974;-71
2023/09/20 11:47:24;;;;;;;;;;;;;;;-140.72;100.00;52463.91;5069195;28;20335;-71
2023/09/20 11:49:50;;;;;;;;;;;;;;;-140.72;100.00;52348.25;5067513;28;20015;-71
2023/09/20 11:52:20;;;;;;;;;;;;;;;-140.72;100.00;52417.25;5070297;28;20294;-71
2023/09/20 11:54:45;;;;;;;;;;;;;;;-140.72;100.00;52390.84;5067236;28;20409;-72
2023/09/20 11:57:15;;;;;;;;;;;;;;;-140.72;100.00;52457.81;5070179;28;19925;-71
2023/09/20 11:59:45;;;;;;;;;;;;;;;-140.72;100.00;52482.16;5069936;28;20370;-71
2023/09/20 12:02:12;;;;;;;;;;;;;;;-140.72;100.00;52502.47;5068472;28;19921;-70
2023/09/20 12:04:37;;;;;;;;;;;;;;;-140.72;100.00;52484.19;5069834;28;19951;-70
2023/09/20 12:07:03;;;;;;;;;;;;;;;-140.72;100.00;52502.47;5067361;28;19920;-70
2023/09/20 12:09:28;;;;;;;;;;;;;;;-140.72;100.00;52478.13;5067588;28;19921;-71
2023/09/20 12:11:53;;;;;;;;;;;;;;;-140.72;100.00;52496.38;5067727;28;19943;-70
2023/09/20 12:14:18;;;;;;;;;;;;;;;-140.72;100.00;52516.66;5065752;28;20287;-71
2023/09/20 12:16:47;;;;;;;;;;;;;;;-140.72;100.00;52557.25;5068097;28;19921;-69
2023/09/20 12:19:14;;;;;;;;;;;;;;;-140.72;100.00;52532.91;5066993;28;19948;-69
2023/09/20 12:21:39;;;;;;;;;;;;;;;-140.72;100.00;52516.66;5069433;28;20012;-69
2023/09/20 12:24:04;;;;;;;;;;;;;;;-140.72;100.00;52551.16;5069442;28;20019;-69
2023/09/20 12:26:30;;;;;;;;;;;;;;;-140.72;100.00;52583.63;5068844;28;19924;-69
2023/09/20 12:28:55;;;;;;;;;;;;;;;-140.72;100.00;52541.03;5073065;28;19924;-69
2023/09/20 12:31:23;;;;;;;;;;;;;;;-140.72;100.00;52569.44;5066362;28;19932;-70
2023/09/20 12:33:49;;;;;;;;;;;;;;;-140.72;100.00;52551.16;5068779;28;19972;-70
2023/09/20 12:36:14;;;;;;;;;;;;;;;-140.72;100.00;52551.16;5076293;28;20012;-70
2023/09/20 12:38:40;;;;;;;;;;;;;;;-140.72;100.00;52557.25;5069865;28;19944;-69
2023/09/20 12:41:08;;;;;;;;;;;;;;;-140.72;100.00;52547.09;5064339;28;19924;-69
2023/09/20 12:43:33;;;;;;;;;;;;;;;-140.72;100.00;52508.56;5065640;28;19917;-69
2023/09/20 12:45:59;;;;;;;;;;;;;;;-140.72;100.00;52486.22;5072184;28;20334;-69
2023/09/20 12:48:24;;;;;;;;;;;;;;;-140.72;100.00;52459.84;5067514;28;19989;-69
2023/09/20 12:50:49;;;;;;;;;;;;;;;-140.72;100.00;52453.75;5071140;28;19928;-69
2023/09/20 12:53:15;;;;;;;;;;;;;;;-140.72;100.00;52453.75;5067138;28;20004;-68
2023/09/20 12:55:40;;;;;;;;;;;;;;;-140.72;100.00;52423.31;5070139;28;20002;-69
2023/09/20 12:58:06;;;;;;;;;;;;;;;-140.72;100.00;52435.50;5058495;28;20256;-69